In Rescue
 
Open Full Screen Window  High Contrast Mode
July 13, 2020 10:30 PM EDT
Weather Information
Wind Direction
  ---
Wind Speed
  00 kt (0 mph)
Wind Gust
  00 kt (0 mph)
Altimeter
30.01 in
Visibility
10 SM
Temperature
18° C
64° F
Dewpoint
18° C
64° F
Humidity
100%
1hr Rain Fall
00.00 in.
24hr Rain Fall
00.00 in.
Sky Condition
Clear
VFR

METAR KEDJ 140230Z AUTO 00000KT 10SM CLR 18/18 A3001 RMK AO1

FAA Disclaimer: The data displayed is for advisory purposes only and is not to be used for flight planning or operations.